HST,Max TemperatureF,Mean TemperatureF,Min TemperatureF,Max Dew PointF,MeanDew PointF,Min DewpointF,Max Humidity, Mean Humidity, Min Humidity, Max Sea Level PressureIn, Mean Sea Level PressureIn, Min Sea Level PressureIn, Max VisibilityMiles, Mean VisibilityMiles, Min VisibilityMiles, Max Wind SpeedMPH, Mean Wind SpeedMPH, Max Gust SpeedMPH,PrecipitationIn, CloudCover, Events, WindDirDegrees
2012-5-1,80,76,73,67,65,62,74,68,58,30.09,30.04,29.96,10,10,7,12,8,,0.00,6,,210
2012-5-2,82,78,73,67,63,59,81,61,44,30.06,30.02,29.95,10,10,10,13,8,,0.00,4,,176
2012-5-3,81,76,71,66,62,57,73,63,52,30.06,30.03,30.00,10,10,10,15,6,,0.00,4,,147
2012-5-4,81,75,69,66,62,57,69,62,54,30.07,30.03,29.99,10,10,10,15,7,,0.00,3,Rain,168
2012-5-5,82,76,71,67,62,58,73,61,48,30.06,30.03,30.00,10,10,10,16,8,,0.00,3,,315
2012-5-6,81,76,70,66,62,57,71,62,48,30.06,30.03,30.00,10,10,10,13,7,,0.00,2,,174
2012-5-7,82,76,69,66,64,60,76,65,52,30.09,30.06,30.01,10,10,10,13,7,,0.00,2,,142
2012-5-8,82,76,71,67,64,61,76,66,54,30.12,30.07,30.04,10,10,10,14,6,,0.00,3,,159
2012-5-9,82,76,69,66,63,53,84,66,45,30.06,30.03,29.99,10,10,9,20,9,20,0.08,6,Rain,161
2012-5-10,81,76,70,65,62,55,78,63,50,30.05,30.01,29.97,10,10,10,14,7,,0.00,4,,152
2012-5-11,81,75,69,64,62,57,73,62,52,30.03,29.99,29.95,10,10,10,14,9,,0.00,4,,163
2012-5-12,82,76,71,64,61,54,73,61,51,30.05,30.01,29.97,10,10,10,15,9,,0.00,4,,177
2012-5-13,80,74,69,65,61,55,73,62,54,30.05,30.01,29.97,10,10,10,13,6,,0.00,3,,236
2012-5-14,81,74,68,64,61,58,76,63,54,30.02,29.99,29.95,10,10,10,12,5,,0.00,1,,178
2012-5-15,81,75,69,64,61,56,68,61,52,30.04,30.00,29.95,10,10,10,10,6,,0.00,2,,168
2012-5-16,82,76,70,65,61,56,66,59,46,30.06,30.02,29.97,10,10,10,15,6,,0.00,3,,161
2012-5-17,84,78,72,66,64,59,69,62,47,30.11,30.05,30.01,10,10,10,16,7,,0.00,4,,179
2012-5-18,82,76,69,69,67,55,87,73,60,30.08,30.05,29.86,10,10,2,17,5,,1.18,6,Rain,179
2012-5-19,80,75,70,69,66,60,84,71,60,30.06,30.02,29.98,10,10,10,13,6,18,0.00,4,Rain,145
2012-5-20,82,76,71,67,64,63,78,67,54,30.09,30.03,29.98,10,10,10,9,5,,0.00,3,,176
2012-5-21,81,76,70,68,66,62,78,69,62,30.09,30.06,30.02,10,10,10,13,6,,0.00,3,Rain,164
2012-5-22,82,77,72,68,65,58,78,67,50,30.10,30.06,30.02,10,10,10,25,7,37,0.00,4,,136
2012-5-23,82,77,72,68,65,60,76,64,54,30.08,30.04,30.00,10,10,10,20,8,23,0.00,5,,188
2012-5-24,82,78,73,68,66,63,76,67,58,30.08,30.05,30.01,10,10,10,10,7,,0.00,8,Rain,178
2012-5-25,82,78,73,69,66,64,79,70,54,30.04,30.02,29.98,10,10,10,14,6,,0.00,7,,166
2012-5-26,84,78,73,67,65,62,78,63,53,30.04,30.02,29.98,10,10,10,17,7,,0.00,6,,178
2012-5-27,82,78,73,70,68,67,82,72,62,30.05,30.02,29.98,10,10,10,14,9,,0.00,6,Rain,185
2012-5-28,82,78,75,69,65,59,82,65,52,30.08,30.04,30.01,10,10,10,14,8,,0.00,6,,160
2012-5-29,84,77,70,66,63,59,73,61,49,30.11,30.07,30.03,10,10,10,13,6,,0.00,1,,171
2012-5-30,82,77,72,67,63,58,71,62,52,30.10,30.06,30.02,10,10,10,12,5,17,0.00,4,,167
2012-5-31,81,76,70,70,63,58,83,66,54,30.10,30.07,30.05,10,10,9,18,7,25,0.01,4,Rain,134